M/T Goviken — 9HA2718 — position and weather

sailwx.info

Track history (hours):
 
Tides and Currents Weather Stations Pressure Air Temp Water Temp Dewpoint Dewpoint Depression Visibility Wind Speed Wind Dir Waves Ship Positions

M/T Goviken

Last reported at 2016-Dec-03 14:17 UTC. Time now 2016-Dec-05 14:37 UTC.
Position N 41°00' W 009°57'.

Length 88 m; draft 6.5 m.

Type: Ship (hazmat cat C). MMSI: 215389000.

Date/timePositionNaut miles runAvg speedWind from/ knotsBaromVisibWave heightAir tempDewpointWater temp
2016-Dec-03 14:17N 41°00' W 009°57'911.8
2016-Dec-03 13:33N 40°52' W 009°57'1211.6
2016-Dec-03 12:33N 40°40' W 009°57'8511.7
2016-Dec-03 05:17N 39°15' W 009°57'912.5
2016-Dec-03 04:33N 39°06' W 009°57'1312.5
2016-Dec-03 03:33N 38°54' W 009°57'1212.5
2016-Dec-03 02:33N 38°41' W 009°56'1111.1
2016-Dec-03 01:33N 38°32' W 009°48'1211.9
2016-Dec-03 00:33N 38°25' W 009°36'1212.1
2016-Dec-02 23:33N 38°17' W 009°24'1212.3
2016-Dec-02 22:33N 38°09' W 009°12'3 0.1
2016-Dec-01 17:16N 38°07' W 009°10'811.5
2016-Dec-01 16:33N 38°11' W 009°19'1211.5
2016-Dec-01 15:33N 38°17' W 009°32'1111.3
2016-Dec-01 14:33N 38°23' W 009°44'1111.4
2016-Dec-01 13:33N 38°29' W 009°57'1111.3
2016-Dec-01 12:33N 38°35' W 010°09'1211.4
2016-Dec-01 11:33N 38°46' W 010°11'1111.3
2016-Dec-01 10:33N 38°57' W 010°08'1110.9
2016-Dec-01 09:33N 39°07' W 010°02'1110.7
2016-Dec-01 08:33N 39°17' W 009°56'1210.1
2016-Dec-01 07:24N 39°27' W 009°49'  
2016-Nov-26 09:27N 49°43' W 003°40'1112.7
2016-Nov-26 08:33N 49°48' W 003°25'1212.1
2016-Nov-26 07:33N 49°54' W 003°08'1111.4
2016-Nov-26 06:33N 49°60' W 002°53'3510.6
2016-Nov-26 03:18N 50°10' W 002°01'912.0
2016-Nov-26 02:33N 50°12' W 001°48'1313.0
2016-Nov-26 01:33N 50°16' W 001°28'4314.1
2016-Nov-25 22:31N 50°27' W 000°23'1213.0
2016-Nov-25 21:34N 50°30' W 000°04'1212.4
2016-Nov-25 20:33N 50°33' E 000°15'3511.5
2016-Nov-25 17:29N 50°51' E 001°03'1213.3
2016-Nov-25 16:33N 50°59' E 001°18'1414.2
2016-Nov-25 15:33N 51°08' E 001°35'1312.8
2016-Nov-25 14:33N 51°17' E 001°49'1211.7
2016-Nov-25 13:33N 51°28' E 001°58'1110.9
2016-Nov-25 12:33N 51°36' E 002°09'1110.5
2016-Nov-25 11:32N 51°44' E 002°20'1010.0
2016-Nov-25 10:31N 51°52' E 002°31'41411.1
2016-Nov-23 21:20N 58°36' E 005°07'912.1
2016-Nov-23 20:33N 58°46' E 005°08'1211.9
2016-Nov-23 19:33N 58°57' E 005°11'1010.1
2016-Nov-23 18:33N 59°06' E 005°22'1010.2
2016-Nov-23 17:33N 59°15' E 005°30'  
Track history (hours):
 
Tides and Currents Weather Stations Pressure Air Temp Water Temp Dewpoint Dewpoint Depression Visibility Wind Speed Wind Dir Waves Ship Positions

M/T Goviken

Last reported at 2016-Dec-03 14:17 UTC. Time now 2016-Dec-05 14:37 UTC.
Position N 41°00' W 009°57'.

Length 88 m; draft 6.5 m.

Type: Ship (hazmat cat C). MMSI: 215389000.

Date/timePositionNaut miles runAvg speedWind from/ knotsBaromVisibWave heightAir tempDewpointWater temp
2016-Dec-03 14:17N 41°00' W 009°57'911.8
2016-Dec-03 13:33N 40°52' W 009°57'1211.6
2016-Dec-03 12:33N 40°40' W 009°57'8511.7
2016-Dec-03 05:17N 39°15' W 009°57'912.5
2016-Dec-03 04:33N 39°06' W 009°57'1312.5
2016-Dec-03 03:33N 38°54' W 009°57'1212.5
2016-Dec-03 02:33N 38°41' W 009°56'1111.1
2016-Dec-03 01:33N 38°32' W 009°48'1211.9
2016-Dec-03 00:33N 38°25' W 009°36'1212.1
2016-Dec-02 23:33N 38°17' W 009°24'1212.3
2016-Dec-02 22:33N 38°09' W 009°12'3 0.1
2016-Dec-01 17:16N 38°07' W 009°10'811.5
2016-Dec-01 16:33N 38°11' W 009°19'1211.5
2016-Dec-01 15:33N 38°17' W 009°32'1111.3
2016-Dec-01 14:33N 38°23' W 009°44'1111.4
2016-Dec-01 13:33N 38°29' W 009°57'1111.3
2016-Dec-01 12:33N 38°35' W 010°09'1211.4
2016-Dec-01 11:33N 38°46' W 010°11'1111.3
2016-Dec-01 10:33N 38°57' W 010°08'1110.9
2016-Dec-01 09:33N 39°07' W 010°02'1110.7
2016-Dec-01 08:33N 39°17' W 009°56'1210.1
2016-Dec-01 07:24N 39°27' W 009°49'  
2016-Nov-26 09:27N 49°43' W 003°40'1112.7
2016-Nov-26 08:33N 49°48' W 003°25'1212.1
2016-Nov-26 07:33N 49°54' W 003°08'1111.4
2016-Nov-26 06:33N 49°60' W 002°53'3510.6
2016-Nov-26 03:18N 50°10' W 002°01'912.0
2016-Nov-26 02:33N 50°12' W 001°48'1313.0
2016-Nov-26 01:33N 50°16' W 001°28'4314.1
2016-Nov-25 22:31N 50°27' W 000°23'1213.0
2016-Nov-25 21:34N 50°30' W 000°04'1212.4
2016-Nov-25 20:33N 50°33' E 000°15'3511.5
2016-Nov-25 17:29N 50°51' E 001°03'1213.3
2016-Nov-25 16:33N 50°59' E 001°18'1414.2
2016-Nov-25 15:33N 51°08' E 001°35'1312.8
2016-Nov-25 14:33N 51°17' E 001°49'1211.7
2016-Nov-25 13:33N 51°28' E 001°58'1110.9
2016-Nov-25 12:33N 51°36' E 002°09'1110.5
2016-Nov-25 11:32N 51°44' E 002°20'1010.0
2016-Nov-25 10:31N 51°52' E 002°31'41411.1
2016-Nov-23 21:20N 58°36' E 005°07'912.1
2016-Nov-23 20:33N 58°46' E 005°08'1211.9
2016-Nov-23 19:33N 58°57' E 005°11'1010.1
2016-Nov-23 18:33N 59°06' E 005°22'1010.2
2016-Nov-23 17:33N 59°15' E 005°30'  

Dump ship's entire track history